SBNT/NAT METAR and TAF weather

Enter ICAO airport designator
Station Type Date Time Source
SBNT METAR 2019/02/20 08:00 UTC NOAA

SBNT 200800Z 18005KT 9999 FEW021 25/23 Q1011


Station Type Date Time Source
SBNT Decoded METAR 2019/02/20 08:00 UTC NOAA

Natal Aeroporto, Brazil (SBNT) 05-55S 035-15W 49M
Feb 20, 2019 - 03:00 AM EST / 2019.02.20 0800 UTC
Wind: from the S (180 degrees) at 6 MPH (5 KT):0
Visibility: greater than 7 mile(s):0
Sky conditions: mostly clear
Temperature: 77 F (25 C)
Dew Point: 73 F (23 C)
Relative Humidity: 88%
Pressure (altimeter): 29.85 in. Hg (1011 hPa)
ob: SBNT 200800Z 18005KT 9999 FEW021 25/23 Q1011
cycle: 8

Station Type Date Time Source
SBNT TAF 2019/02/20 06:30 UTC NOAA

TAF SBNT 200200Z 2006/2106 15006KT 9000 SCT018 TN26/2008Z TX31/2015Z
BECMG 2011/2012 11012KT
RMK PEA


Example: see airport list